world map with GOOD marked

GOOD - Location

This information may not be accurate or current and is not valid for navigation or flight planning. No warranty of fitness for any purpose is made or implied.

flag of Senegal

Donate via PayPal

Additional information is available on the NEW Great Circle Mapper

Location
City:  Diourbel, Diourbel, Senegal
ICAO:GOOD

Details
Latitude:14°39'N (14.650)
Longitude:16°14'W (-16.233)
Elevation:30 ft (9 m)

Time
Timezone:UTC+0 (DST+2)
Local Time:

Weather
METAR:GOOD  041200Z 04004KT CAVOK 29/09 Q1015
TAF:GOOD  (expired)

Related Locations
Nearby:
Farthest:OLJ: 12262 mi / 19733 km
Olpoi [North West Santo], Espíritu Santo Island, SAM, VU

Find:

   beyond  
but within

Other Information
Maps:
Sources:

  


 


Great Circle Mapper   Great Circle Mapper
Great Circle Mapper FAQ   Great Circle Mapper FAQ
  Karl's Home Page
KLS˛   KLS˛ Home
   GC on Facebook
Airlines of the World   Airlines of the World
Donate via PayPal


Copyright © 2004-2019, Karl L. Swartz. All rights reserved.
All trademarks mentioned herein belong to their respective owners.

Please see credits for attribution and copyright information.

Karl Swartz <karl@kls2.com>
  Powered by FreeBSD
Valid HTML 4.01!
Labeled with ICRA
hCard Microformat
Geo Microformat